Time,TemperatureF,DewpointF,PressureIn,WindDirection,WindDirectionDegrees,WindSpeedMPH,WindSpeedGustMPH,Humidity,HourlyPrecipIn,Conditions,Clouds,dailyrainin,SoftwareType,DateUTC
2013-11-28 00:00:00,28.3,20.1,29.76,North,32767,-999.0,0.0,71,0.00,,,0.00,Wunderground v.1.15,2013-11-28 05:00:00,
2013-11-28 00:05:00,28.3,20.4,29.76,North,32767,-999.0,0.0,72,0.00,,,0.00,Wunderground v.1.15,2013-11-28 05:05:00,
2013-11-28 00:10:00,28.1,20.6,29.77,North,32767,-999.0,0.0,73,0.00,,,0.00,Wunderground v.1.15,2013-11-28 05:10:00,
2013-11-28 00:15:00,28.0,20.5,29.77,North,32767,-999.0,0.0,73,0.00,,,0.00,Wunderground v.1.15,2013-11-28 05:15:00,
2013-11-28 00:25:00,27.9,21.3,29.78,North,32767,-999.0,0.0,76,0.00,,,0.00,Wunderground v.1.15,2013-11-28 05:25:00,
2013-11-28 00:30:00,27.9,20.7,29.78,North,32767,-999.0,0.0,74,0.00,,,0.00,Wunderground v.1.15,2013-11-28 05:30:00,
2013-11-28 00:40:00,27.9,21.0,29.79,North,32767,-999.0,0.0,75,0.00,,,0.00,Wunderground v.1.15,2013-11-28 05:40:00,
2013-11-28 00:45:00,27.9,20.7,29.79,North,32767,-999.0,0.0,74,0.00,,,0.00,Wunderground v.1.15,2013-11-28 05:45:00,
2013-11-28 00:55:00,27.9,20.4,29.80,North,32767,-999.0,0.0,73,0.00,,,0.00,Wunderground v.1.15,2013-11-28 05:55:00,
2013-11-28 01:00:00,27.8,19.9,29.80,North,32767,-999.0,0.0,72,0.00,,,0.00,Wunderground v.1.15,2013-11-28 06:00:00,
2013-11-28 01:10:00,27.6,20.1,29.81,North,32767,-999.0,0.0,73,0.00,,,0.00,Wunderground v.1.15,2013-11-28 06:10:00,
2013-11-28 01:20:00,27.5,20.0,29.81,North,32767,-999.0,0.0,73,0.00,,,0.00,Wunderground v.1.15,2013-11-28 06:20:00,
2013-11-28 01:25:00,27.5,20.0,29.81,North,32767,-999.0,0.0,73,0.00,,,0.00,Wunderground v.1.15,2013-11-28 06:25:00,
2013-11-28 01:35:00,27.3,19.8,29.82,North,32767,-999.0,0.0,73,0.00,,,0.00,Wunderground v.1.15,2013-11-28 06:35:00,
2013-11-28 01:45:00,27.2,19.7,29.83,North,32767,-999.0,0.0,73,0.00,,,0.00,Wunderground v.1.15,2013-11-28 06:45:00,
2013-11-28 01:55:00,27.1,19.3,29.84,North,32767,-999.0,0.0,72,0.00,,,0.00,Wunderground v.1.15,2013-11-28 06:55:00,
2013-11-28 02:00:00,27.1,19.6,29.84,North,32767,-999.0,0.0,73,0.00,,,0.00,Wunderground v.1.15,2013-11-28 07:00:00,
2013-11-28 02:10:00,27.0,19.2,29.85,North,32767,-999.0,0.0,72,0.00,,,0.00,Wunderground v.1.15,2013-11-28 07:10:00,
2013-11-28 02:15:00,26.9,19.4,29.85,North,32767,-999.0,0.0,73,0.00,,,0.00,Wunderground v.1.15,2013-11-28 07:15:00,
2013-11-28 02:25:00,26.8,19.3,29.87,North,32767,-999.0,0.0,73,0.00,,,0.00,Wunderground v.1.15,2013-11-28 07:25:00,
2013-11-28 02:35:00,26.6,19.1,29.88,North,32767,-999.0,0.0,73,0.00,,,0.00,Wunderground v.1.15,2013-11-28 07:35:00,
2013-11-28 02:45:00,26.3,19.1,29.89,North,32767,-999.0,0.0,74,0.00,,,0.00,Wunderground v.1.15,2013-11-28 07:45:00,
2013-11-28 02:50:00,26.2,19.0,29.89,North,32767,-999.0,0.0,74,0.00,,,0.00,Wunderground v.1.15,2013-11-28 07:50:00,
2013-11-28 03:00:00,26.2,19.7,29.90,North,32767,-999.0,0.0,76,0.00,,,0.00,Wunderground v.1.15,2013-11-28 08:00:00,
2013-11-28 03:10:00,26.2,19.7,29.91,North,32767,-999.0,0.0,76,0.00,,,0.00,Wunderground v.1.15,2013-11-28 08:10:00,
2013-11-28 03:20:00,26.1,19.9,29.91,North,32767,-999.0,0.0,77,0.00,,,0.00,Wunderground v.1.15,2013-11-28 08:20:00,
2013-11-28 03:30:00,26.0,19.2,29.92,North,32767,-999.0,0.0,75,0.00,,,0.00,Wunderground v.1.15,2013-11-28 08:30:00,
2013-11-28 03:40:00,26.0,18.2,29.93,North,32767,-999.0,0.0,72,0.00,,,0.00,Wunderground v.1.15,2013-11-28 08:40:00,
2013-11-28 03:50:00,25.9,17.8,29.94,North,32767,-999.0,0.0,71,0.00,,,0.00,Wunderground v.1.15,2013-11-28 08:50:00,
2013-11-28 04:00:00,25.7,17.6,29.95,North,32767,-999.0,0.0,71,0.00,,,0.00,Wunderground v.1.15,2013-11-28 09:00:00,
2013-11-28 04:10:00,25.6,17.2,29.95,North,32767,-999.0,0.0,70,0.00,,,0.00,Wunderground v.1.15,2013-11-28 09:10:00,
2013-11-28 04:15:00,25.5,17.7,29.96,North,32767,-999.0,0.0,72,0.00,,,0.00,Wunderground v.1.15,2013-11-28 09:15:00,
2013-11-28 04:25:00,25.4,17.3,29.98,North,32767,-999.0,0.0,71,0.00,,,0.00,Wunderground v.1.15,2013-11-28 09:25:00,
2013-11-28 04:35:00,25.1,18.3,29.99,North,32767,-999.0,0.0,75,0.00,,,0.00,Wunderground v.1.15,2013-11-28 09:35:00,
2013-11-28 04:45:00,25.0,17.9,29.99,North,32767,-999.0,0.0,74,0.00,,,0.00,Wunderground v.1.15,2013-11-28 09:45:00,
2013-11-28 04:50:00,25.1,17.3,30.00,North,32767,-999.0,0.0,72,0.00,,,0.00,Wunderground v.1.15,2013-11-28 09:50:00,
2013-11-28 05:00:00,25.0,16.6,30.00,North,32767,-999.0,0.0,70,0.00,,,0.00,Wunderground v.1.15,2013-11-28 10:00:00,
2013-11-28 05:10:00,25.0,16.3,30.01,North,32767,-999.0,0.0,69,0.00,,,0.00,Wunderground v.1.15,2013-11-28 10:10:00,
2013-11-28 05:20:00,24.8,16.1,30.02,North,32767,-999.0,0.0,69,0.00,,,0.00,Wunderground v.1.15,2013-11-28 10:20:00,
2013-11-28 05:30:00,24.5,16.1,30.03,North,32767,-999.0,0.0,70,0.00,,,0.00,Wunderground v.1.15,2013-11-28 10:30:00,
2013-11-28 05:40:00,24.6,14.9,30.03,North,32767,-999.0,0.0,66,0.00,,,0.00,Wunderground v.1.15,2013-11-28 10:40:00,
2013-11-28 05:50:00,24.5,14.4,30.04,North,32767,-999.0,0.0,65,0.00,,,0.00,Wunderground v.1.15,2013-11-28 10:50:00,
2013-11-28 06:00:00,24.6,13.8,30.05,North,32767,-999.0,0.0,63,0.00,,,0.00,Wunderground v.1.15,2013-11-28 11:00:00,
2013-11-28 06:10:00,24.4,14.0,30.05,North,32767,-999.0,0.0,64,0.00,,,0.00,Wunderground v.1.15,2013-11-28 11:10:00,
2013-11-28 06:15:00,24.4,13.6,30.05,North,32767,-999.0,0.0,63,0.00,,,0.00,Wunderground v.1.15,2013-11-28 11:15:00,
2013-11-28 06:25:00,24.2,13.8,30.06,North,32767,-999.0,0.0,64,0.00,,,0.00,Wunderground v.1.15,2013-11-28 11:25:00,
2013-11-28 06:35:00,24.3,13.5,30.08,North,32767,-999.0,0.0,63,0.00,,,0.00,Wunderground v.1.15,2013-11-28 11:35:00,
2013-11-28 06:45:00,24.3,12.8,30.08,North,32767,-999.0,0.0,61,0.00,,,0.00,Wunderground v.1.15,2013-11-28 11:45:00,
2013-11-28 06:50:00,24.2,13.4,30.09,North,32767,-999.0,0.0,63,0.00,,,0.00,Wunderground v.1.15,2013-11-28 11:50:00,
2013-11-28 07:00:00,23.9,13.5,30.11,North,32767,-999.0,0.0,64,0.00,,,0.00,Wunderground v.1.15,2013-11-28 12:00:00,
2013-11-28 07:10:00,23.7,12.6,30.13,North,32767,-999.0,0.0,62,0.00,,,0.00,Wunderground v.1.15,2013-11-28 12:10:00,
2013-11-28 07:20:00,23.7,12.9,30.14,North,32767,-999.0,0.0,63,0.00,,,0.00,Wunderground v.1.15,2013-11-28 12:20:00,
2013-11-28 07:30:00,23.8,13.0,30.15,North,32767,-999.0,0.0,63,0.00,,,0.00,Wunderground v.1.15,2013-11-28 12:30:00,
2013-11-28 07:35:00,23.9,12.4,30.15,North,32767,-999.0,0.0,61,0.00,,,0.00,Wunderground v.1.15,2013-11-28 12:35:00,
2013-11-28 07:45:00,23.9,12.8,30.16,ENE,59,0.0,0.0,62,0.00,,,0.00,Wunderground v.1.15,2013-11-28 12:45:00,
2013-11-28 07:55:00,23.8,11.9,30.15,ENE,74,0.0,0.0,60,0.00,,,0.00,Wunderground v.1.15,2013-11-28 12:55:00,
2013-11-28 08:00:00,23.9,12.4,30.16,ENE,72,0.0,0.0,61,0.00,,,0.00,Wunderground v.1.15,2013-11-28 13:00:00,
2013-11-28 08:10:00,24.0,12.9,30.17,East,83,0.0,0.0,62,0.00,,,0.00,Wunderground v.1.15,2013-11-28 13:10:00,
2013-11-28 08:20:00,23.8,13.0,30.18,NE,36,0.0,0.0,63,0.00,,,0.00,Wunderground v.1.15,2013-11-28 13:20:00,
2013-11-28 08:25:00,23.9,13.5,30.18,NE,53,0.0,0.0,64,0.00,,,0.00,Wunderground v.1.15,2013-11-28 13:25:00,
2013-11-28 08:35:00,24.2,12.7,30.19,East,85,0.0,0.0,61,0.00,,,0.00,Wunderground v.1.15,2013-11-28 13:35:00,
2013-11-28 08:45:00,24.2,12.7,30.20,East,98,0.0,0.0,61,0.00,,,0.00,Wunderground v.1.15,2013-11-28 13:45:00,
2013-11-28 08:55:00,24.3,13.9,30.20,East,80,0.0,0.0,64,0.00,,,0.00,Wunderground v.1.15,2013-11-28 13:55:00,
2013-11-28 09:00:00,24.3,13.5,30.20,East,88,0.0,0.0,63,0.00,,,0.00,Wunderground v.1.15,2013-11-28 14:00:00,
2013-11-28 09:10:00,24.2,13.4,30.21,NE,50,0.0,0.0,63,0.00,,,0.00,Wunderground v.1.15,2013-11-28 14:10:00,
2013-11-28 09:20:00,24.3,13.5,30.22,ENE,67,0.0,0.0,63,0.00,,,0.00,Wunderground v.1.15,2013-11-28 14:20:00,
2013-11-28 09:30:00,24.6,13.8,30.22,NE,53,0.0,0.0,63,0.00,,,0.00,Wunderground v.1.15,2013-11-28 14:30:00,
2013-11-28 09:40:00,24.7,13.9,30.23,ESE,108,0.0,0.0,63,0.00,,,0.00,Wunderground v.1.15,2013-11-28 14:40:00,
2013-11-28 09:45:00,24.8,13.6,30.23,ENE,61,0.0,0.0,62,0.00,,,0.00,Wunderground v.1.15,2013-11-28 14:45:00,
2013-11-28 09:55:00,25.0,14.2,30.24,ENE,73,0.0,0.0,63,0.00,,,0.00,Wunderground v.1.15,2013-11-28 14:55:00,
2013-11-28 10:00:00,25.0,13.8,30.24,ENE,78,0.0,0.0,62,0.00,,,0.00,Wunderground v.1.15,2013-11-28 15:00:00,
2013-11-28 10:10:00,25.0,13.8,30.25,East,81,0.0,0.0,62,0.00,,,0.00,Wunderground v.1.15,2013-11-28 15:10:00,
2013-11-28 10:20:00,25.4,14.9,30.25,ENE,61,0.0,0.0,64,0.00,,,0.00,Wunderground v.1.15,2013-11-28 15:20:00,
2013-11-28 10:25:00,25.5,14.6,30.25,ENE,61,0.0,0.0,63,0.00,,,0.00,Wunderground v.1.15,2013-11-28 15:25:00,
2013-11-28 10:35:00,25.6,13.6,30.25,East,92,0.0,0.0,60,0.00,,,0.00,Wunderground v.1.15,2013-11-28 15:35:00,
2013-11-28 10:45:00,26.0,14.0,30.25,NE,42,0.0,0.0,60,0.00,,,0.00,Wunderground v.1.15,2013-11-28 15:45:00,
2013-11-28 10:55:00,26.1,13.7,30.25,ENE,63,0.0,0.0,59,0.00,,,0.00,Wunderground v.1.15,2013-11-28 15:55:00,
2013-11-28 11:00:00,26.4,14.4,30.25,NE,50,0.0,0.0,60,0.00,,,0.00,Wunderground v.1.15,2013-11-28 16:00:00,
2013-11-28 11:10:00,26.7,13.9,30.25,ENE,59,0.0,0.0,58,0.00,,,0.00,Wunderground v.1.15,2013-11-28 16:10:00,
2013-11-28 11:20:00,26.8,14.4,30.25,East,84,0.0,0.0,59,0.00,,,0.00,Wunderground v.1.15,2013-11-28 16:20:00,
2013-11-28 11:30:00,27.0,13.4,30.25,NE,44,0.0,0.0,56,0.00,,,0.00,Wunderground v.1.15,2013-11-28 16:30:00,
2013-11-28 11:40:00,27.5,15.0,30.25,ENE,61,0.0,0.0,59,0.00,,,0.00,Wunderground v.1.15,2013-11-28 16:40:00,
2013-11-28 11:50:00,27.3,13.2,30.25,ENE,78,0.0,0.0,55,0.00,,,0.00,Wunderground v.1.15,2013-11-28 16:50:00,
2013-11-28 12:00:00,27.4,13.3,30.25,NE,52,0.0,0.0,55,0.00,,,0.00,Wunderground v.1.15,2013-11-28 17:00:00,
2013-11-28 12:10:00,28.0,14.7,30.25,ENE,68,0.0,0.0,57,0.00,,,0.00,Wunderground v.1.15,2013-11-28 17:10:00,
2013-11-28 12:20:00,28.1,13.6,30.25,East,94,0.0,0.0,54,0.00,,,0.00,Wunderground v.1.15,2013-11-28 17:20:00,
2013-11-28 12:30:00,28.0,13.9,30.26,ENE,69,0.0,0.0,55,0.00,,,0.00,Wunderground v.1.15,2013-11-28 17:30:00,
2013-11-28 12:40:00,28.2,13.7,30.25,ENE,62,0.0,0.0,54,0.00,,,0.00,Wunderground v.1.15,2013-11-28 17:40:00,
2013-11-28 12:50:00,28.5,13.9,30.26,East,82,0.0,0.0,54,0.00,,,0.00,Wunderground v.1.15,2013-11-28 17:50:00,
2013-11-28 13:00:00,28.4,13.0,30.26,ENE,71,0.0,0.0,52,0.00,,,0.00,Wunderground v.1.15,2013-11-28 18:00:00,
2013-11-28 13:10:00,28.4,13.0,30.26,East,81,0.0,0.0,52,0.00,,,0.00,Wunderground v.1.15,2013-11-28 18:10:00,
2013-11-28 13:20:00,28.5,12.6,30.26,East,80,0.0,0.0,51,0.00,,,0.00,Wunderground v.1.15,2013-11-28 18:20:00,
2013-11-28 13:30:00,28.7,13.3,30.26,ENE,76,0.0,0.0,52,0.00,,,0.00,Wunderground v.1.15,2013-11-28 18:30:00,
2013-11-28 13:40:00,28.9,14.3,30.27,NE,48,0.0,0.0,54,0.00,,,0.00,Wunderground v.1.15,2013-11-28 18:40:00,
2013-11-28 13:50:00,28.9,14.3,30.27,East,79,0.0,0.0,54,0.00,,,0.00,Wunderground v.1.15,2013-11-28 18:50:00,
2013-11-28 14:00:00,28.9,13.0,30.27,East,82,0.0,0.0,51,0.00,,,0.00,Wunderground v.1.15,2013-11-28 19:00:00,
2013-11-28 14:10:00,29.0,13.1,30.27,NE,43,0.0,0.0,51,0.00,,,0.00,Wunderground v.1.15,2013-11-28 19:10:00,
2013-11-28 14:20:00,28.8,12.9,30.27,NE,53,0.0,0.0,51,0.00,,,0.00,Wunderground v.1.15,2013-11-28 19:20:00,
2013-11-28 14:30:00,28.8,14.2,30.28,East,91,0.0,0.0,54,0.00,,,0.00,Wunderground v.1.15,2013-11-28 19:30:00,
2013-11-28 14:40:00,29.0,13.1,30.29,East,88,0.0,0.0,51,0.00,,,0.00,Wunderground v.1.15,2013-11-28 19:40:00,
2013-11-28 14:50:00,29.0,13.1,30.29,East,95,0.0,0.0,51,0.00,,,0.00,Wunderground v.1.15,2013-11-28 19:50:00,
2013-11-28 15:00:00,29.0,13.6,30.30,ENE,75,0.0,0.0,52,0.00,,,0.00,Wunderground v.1.15,2013-11-28 20:00:00,
2013-11-28 15:10:00,28.8,13.8,30.31,ENE,69,0.0,0.0,53,0.00,,,0.00,Wunderground v.1.15,2013-11-28 20:10:00,
2013-11-28 15:20:00,28.5,13.5,30.31,ENE,66,0.0,0.0,53,0.00,,,0.00,Wunderground v.1.15,2013-11-28 20:20:00,
2013-11-28 15:30:00,28.5,13.9,30.31,East,90,0.0,0.0,54,0.00,,,0.00,Wunderground v.1.15,2013-11-28 20:30:00,
2013-11-28 15:40:00,28.5,13.9,30.31,ENE,68,0.0,0.0,54,0.00,,,0.00,Wunderground v.1.15,2013-11-28 20:40:00,
2013-11-28 15:50:00,28.3,13.8,30.31,East,88,0.0,0.0,54,0.00,,,0.00,Wunderground v.1.15,2013-11-28 20:50:00,
2013-11-28 16:00:00,28.2,14.1,30.32,East,82,0.0,0.0,55,0.00,,,0.00,Wunderground v.1.15,2013-11-28 21:00:00,
2013-11-28 16:10:00,27.9,13.8,30.33,East,79,0.0,0.0,55,0.00,,,0.00,Wunderground v.1.15,2013-11-28 21:10:00,
2013-11-28 16:20:00,27.8,13.3,30.33,North,32767,-999.0,0.0,54,0.00,,,0.00,Wunderground v.1.15,2013-11-28 21:20:00,
2013-11-28 16:30:00,27.7,13.6,30.34,North,32767,-999.0,0.0,55,0.00,,,0.00,Wunderground v.1.15,2013-11-28 21:30:00,
2013-11-28 16:35:00,27.6,13.5,30.34,North,32767,-999.0,0.0,55,0.00,,,0.00,Wunderground v.1.15,2013-11-28 21:35:00,
2013-11-28 16:45:00,27.4,13.3,30.34,North,32767,-999.0,0.0,55,0.00,,,0.00,Wunderground v.1.15,2013-11-28 21:45:00,
2013-11-28 16:55:00,27.3,13.2,30.35,North,32767,-999.0,0.0,55,0.00,,,0.00,Wunderground v.1.15,2013-11-28 21:55:00,
2013-11-28 17:00:00,27.2,13.6,30.35,North,32767,-999.0,0.0,56,0.00,,,0.00,Wunderground v.1.15,2013-11-28 22:00:00,
2013-11-28 17:10:00,27.1,13.5,30.36,North,32767,-999.0,0.0,56,0.00,,,0.00,Wunderground v.1.15,2013-11-28 22:10:00,
2013-11-28 17:20:00,26.6,13.8,30.36,North,32767,-999.0,0.0,58,0.00,,,0.00,Wunderground v.1.15,2013-11-28 22:20:00,
2013-11-28 17:30:00,26.5,13.7,30.37,North,32767,-999.0,0.0,58,0.00,,,0.00,Wunderground v.1.15,2013-11-28 22:30:00,
2013-11-28 17:40:00,26.6,13.4,30.38,North,32767,-999.0,0.0,57,0.00,,,0.00,Wunderground v.1.15,2013-11-28 22:40:00,
2013-11-28 17:50:00,26.6,13.8,30.38,North,32767,-999.0,0.0,58,0.00,,,0.00,Wunderground v.1.15,2013-11-28 22:50:00,
2013-11-28 18:00:00,26.4,13.2,30.39,North,32767,-999.0,0.0,57,0.00,,,0.00,Wunderground v.1.15,2013-11-28 23:00:00,
2013-11-28 18:10:00,26.2,13.0,30.39,North,32767,-999.0,0.0,57,0.00,,,0.00,Wunderground v.1.15,2013-11-28 23:10:00,
2013-11-28 18:20:00,26.1,13.3,30.40,North,32767,-999.0,0.0,58,0.00,,,0.00,Wunderground v.1.15,2013-11-28 23:20:00,
2013-11-28 18:30:00,26.1,13.3,30.40,North,32767,-999.0,0.0,58,0.00,,,0.00,Wunderground v.1.15,2013-11-28 23:30:00,
2013-11-28 18:35:00,25.9,13.1,30.40,North,32767,-999.0,0.0,58,0.00,,,0.00,Wunderground v.1.15,2013-11-28 23:35:00,
2013-11-28 18:45:00,25.7,12.9,30.41,North,32767,-999.0,0.0,58,0.00,,,0.00,Wunderground v.1.15,2013-11-28 23:45:00,
2013-11-28 18:55:00,25.5,13.5,30.41,North,32767,-999.0,0.0,60,0.00,,,0.00,Wunderground v.1.15,2013-11-28 23:55:00,
2013-11-28 19:00:00,25.3,13.3,30.42,North,32767,-999.0,0.0,60,0.00,,,0.00,Wunderground v.1.15,2013-11-29 00:00:00,
2013-11-28 19:10:00,25.1,12.8,30.42,North,32767,-999.0,0.0,59,0.00,,,0.00,Wunderground v.1.15,2013-11-29 00:10:00,
2013-11-28 19:20:00,25.1,13.5,30.42,North,32767,-999.0,0.0,61,0.00,,,0.00,Wunderground v.1.15,2013-11-29 00:20:00,
2013-11-28 19:30:00,25.0,13.1,30.42,North,32767,-999.0,0.0,60,0.00,,,0.00,Wunderground v.1.15,2013-11-29 00:30:00,
2013-11-28 19:40:00,25.4,13.1,30.42,North,32767,-999.0,0.0,59,0.00,,,0.00,Wunderground v.1.15,2013-11-29 00:40:00,
2013-11-28 19:50:00,25.7,12.9,30.42,North,32767,-999.0,0.0,58,0.00,,,0.00,Wunderground v.1.15,2013-11-29 00:50:00,
2013-11-28 20:00:00,25.8,13.0,30.42,North,32767,-999.0,0.0,58,0.00,,,0.00,Wunderground v.1.15,2013-11-29 01:00:00,
2013-11-28 20:10:00,25.8,13.8,30.43,North,32767,-999.0,0.0,60,0.00,,,0.00,Wunderground v.1.15,2013-11-29 01:10:00,
2013-11-28 20:20:00,25.9,13.1,30.43,North,32767,-999.0,0.0,58,0.00,,,0.00,Wunderground v.1.15,2013-11-29 01:20:00,
2013-11-28 20:30:00,25.8,14.9,30.43,North,32767,-999.0,0.0,63,0.00,,,0.00,Wunderground v.1.15,2013-11-29 01:30:00,
2013-11-28 20:35:00,25.7,14.5,30.44,North,32767,-999.0,0.0,62,0.00,,,0.00,Wunderground v.1.15,2013-11-29 01:35:00,
2013-11-28 20:45:00,25.4,14.9,30.44,North,32767,-999.0,0.0,64,0.00,,,0.00,Wunderground v.1.15,2013-11-29 01:45:00,
2013-11-28 20:55:00,25.3,15.2,30.44,North,32767,-999.0,0.0,65,0.00,,,0.00,Wunderground v.1.15,2013-11-29 01:55:00,
2013-11-28 21:00:00,25.2,15.4,30.44,North,32767,-999.0,0.0,66,0.00,,,0.00,Wunderground v.1.15,2013-11-29 02:00:00,
2013-11-28 21:10:00,25.3,15.2,30.44,North,32767,-999.0,0.0,65,0.00,,,0.00,Wunderground v.1.15,2013-11-29 02:10:00,
2013-11-28 21:20:00,25.6,15.1,30.45,North,32767,-999.0,0.0,64,0.00,,,0.00,Wunderground v.1.15,2013-11-29 02:20:00,
2013-11-28 21:30:00,25.8,15.3,30.45,North,32767,-999.0,0.0,64,0.00,,,0.00,Wunderground v.1.15,2013-11-29 02:30:00,
2013-11-28 21:40:00,25.9,15.0,30.45,North,32767,-999.0,0.0,63,0.00,,,0.00,Wunderground v.1.15,2013-11-29 02:40:00,
2013-11-28 21:50:00,25.9,15.4,30.45,North,32767,-999.0,0.0,64,0.00,,,0.00,Wunderground v.1.15,2013-11-29 02:50:00,
2013-11-28 22:00:00,26.0,16.9,30.45,North,32767,-999.0,0.0,68,0.00,,,0.00,Wunderground v.1.15,2013-11-29 03:00:00,
2013-11-28 22:10:00,26.0,17.6,30.45,North,32767,-999.0,0.0,70,0.00,,,0.00,Wunderground v.1.15,2013-11-29 03:10:00,
2013-11-28 22:20:00,26.1,18.3,30.45,North,32767,-999.0,0.0,72,0.00,,,0.00,Wunderground v.1.15,2013-11-29 03:20:00,
2013-11-28 22:25:00,26.2,18.1,30.45,North,32767,-999.0,0.0,71,0.00,,,0.00,Wunderground v.1.15,2013-11-29 03:25:00,
2013-11-28 22:30:00,26.2,18.4,30.46,North,32767,-999.0,0.0,72,0.00,,,0.00,Wunderground v.1.15,2013-11-29 03:30:00,
2013-11-28 22:40:00,26.2,18.7,30.46,North,32767,-999.0,0.0,73,0.00,,,0.00,Wunderground v.1.15,2013-11-29 03:40:00,
2013-11-28 22:50:00,26.2,18.7,30.46,North,32767,-999.0,0.0,73,0.00,,,0.00,Wunderground v.1.15,2013-11-29 03:50:00,
2013-11-28 23:00:00,26.2,19.0,30.46,North,32767,-999.0,0.0,74,0.00,,,0.00,Wunderground v.1.15,2013-11-29 04:00:00,
2013-11-28 23:10:00,26.1,19.3,30.46,North,32767,-999.0,0.0,75,0.00,,,0.00,Wunderground v.1.15,2013-11-29 04:10:00,
2013-11-28 23:20:00,26.2,19.0,30.46,North,32767,-999.0,0.0,74,0.00,,,0.00,Wunderground v.1.15,2013-11-29 04:20:00,
2013-11-28 23:30:00,26.2,19.4,30.46,North,32767,-999.0,0.0,75,0.00,,,0.00,Wunderground v.1.15,2013-11-29 04:30:00,
2013-11-28 23:40:00,26.2,19.4,30.46,North,32767,-999.0,0.0,75,0.00,,,0.00,Wunderground v.1.15,2013-11-29 04:40:00,
2013-11-28 23:50:00,26.1,19.3,30.46,North,32767,-999.0,0.0,75,0.00,,,0.00,Wunderground v.1.15,2013-11-29 04:50:00,